sensor_id;sensor_type;location;lat;lon;timestamp;P1;durP1;ratioP1;P2;durP2;ratioP2
65896;SDS011;52677;50.898;10.854;2023-02-04T00:01:04;9.45;;;2.58;;
65896;SDS011;52677;50.898;10.854;2023-02-04T00:03:04;13.30;;;3.47;;
65896;SDS011;52677;50.898;10.854;2023-02-04T00:05:05;16.60;;;2.83;;
65896;SDS011;52677;50.898;10.854;2023-02-04T00:07:06;11.50;;;2.38;;
65896;SDS011;52677;50.898;10.854;2023-02-04T00:09:06;12.48;;;2.63;;
65896;SDS011;52677;50.898;10.854;2023-02-04T00:11:07;10.68;;;2.50;;
65896;SDS011;52677;50.898;10.854;2023-02-04T00:13:07;12.05;;;2.63;;
65896;SDS011;52677;50.898;10.854;2023-02-04T00:15:07;10.05;;;3.28;;
65896;SDS011;52677;50.898;10.854;2023-02-04T00:17:09;8.07;;;1.98;;
65896;SDS011;52677;50.898;10.854;2023-02-04T00:19:11;12.32;;;2.25;;
65896;SDS011;52677;50.898;10.854;2023-02-04T00:21:12;8.23;;;2.03;;
65896;SDS011;52677;50.898;10.854;2023-02-04T00:23:12;10.57;;;2.47;;
65896;SDS011;52677;50.898;10.854;2023-02-04T00:25:13;12.52;;;2.92;;
65896;SDS011;52677;50.898;10.854;2023-02-04T00:27:13;7.50;;;2.13;;
65896;SDS011;52677;50.898;10.854;2023-02-04T00:29:13;11.80;;;3.25;;
65896;SDS011;52677;50.898;10.854;2023-02-04T00:31:14;9.27;;;2.55;;
65896;SDS011;52677;50.898;10.854;2023-02-04T00:33:14;6.60;;;1.90;;
65896;SDS011;52677;50.898;10.854;2023-02-04T00:35:14;8.80;;;3.10;;
65896;SDS011;52677;50.898;10.854;2023-02-04T00:37:15;8.98;;;2.22;;
65896;SDS011;52677;50.898;10.854;2023-02-04T00:39:15;4.35;;;1.55;;
65896;SDS011;52677;50.898;10.854;2023-02-04T00:41:15;7.57;;;2.22;;
65896;SDS011;52677;50.898;10.854;2023-02-04T00:43:16;9.55;;;2.03;;
65896;SDS011;52677;50.898;10.854;2023-02-04T00:45:16;9.20;;;1.80;;
65896;SDS011;52677;50.898;10.854;2023-02-04T00:47:16;5.32;;;1.55;;
65896;SDS011;52677;50.898;10.854;2023-02-04T00:49:17;10.50;;;1.88;;
65896;SDS011;52677;50.898;10.854;2023-02-04T00:51:17;6.57;;;1.67;;
65896;SDS011;52677;50.898;10.854;2023-02-04T00:53:17;6.97;;;1.88;;
65896;SDS011;52677;50.898;10.854;2023-02-04T00:55:18;7.95;;;1.90;;
65896;SDS011;52677;50.898;10.854;2023-02-04T00:57:18;8.27;;;1.95;;
65896;SDS011;52677;50.898;10.854;2023-02-04T00:59:18;11.30;;;2.38;;
65896;SDS011;52677;50.898;10.854;2023-02-04T01:01:19;4.82;;;1.95;;
65896;SDS011;52677;50.898;10.854;2023-02-04T01:03:19;7.57;;;2.28;;
65896;SDS011;52677;50.898;10.854;2023-02-04T01:05:19;9.27;;;2.35;;
65896;SDS011;52677;50.898;10.854;2023-02-04T01:07:19;10.73;;;2.17;;
65896;SDS011;52677;50.898;10.854;2023-02-04T01:09:20;7.93;;;2.13;;
65896;SDS011;52677;50.898;10.854;2023-02-04T01:11:20;14.73;;;2.22;;
65896;SDS011;52677;50.898;10.854;2023-02-04T01:13:20;12.10;;;3.13;;
65896;SDS011;52677;50.898;10.854;2023-02-04T01:15:21;11.50;;;2.20;;
65896;SDS011;52677;50.898;10.854;2023-02-04T01:17:22;15.70;;;1.85;;
65896;SDS011;52677;50.898;10.854;2023-02-04T01:19:22;8.00;;;2.00;;
65896;SDS011;52677;50.898;10.854;2023-02-04T01:21:22;9.45;;;2.53;;
65896;SDS011;52677;50.898;10.854;2023-02-04T01:23:23;9.25;;;2.05;;
65896;SDS011;52677;50.898;10.854;2023-02-04T01:25:23;4.82;;;1.65;;
65896;SDS011;52677;50.898;10.854;2023-02-04T01:27:25;12.75;;;2.45;;
65896;SDS011;52677;50.898;10.854;2023-02-04T01:29:25;6.68;;;1.70;;
65896;SDS011;52677;50.898;10.854;2023-02-04T01:31:25;5.68;;;2.15;;
65896;SDS011;52677;50.898;10.854;2023-02-04T01:33:25;9.10;;;2.08;;
65896;SDS011;52677;50.898;10.854;2023-02-04T01:35:26;12.43;;;2.03;;
65896;SDS011;52677;50.898;10.854;2023-02-04T01:37:26;8.80;;;1.92;;
65896;SDS011;52677;50.898;10.854;2023-02-04T01:39:26;11.77;;;2.22;;
65896;SDS011;52677;50.898;10.854;2023-02-04T01:41:27;10.73;;;2.35;;
65896;SDS011;52677;50.898;10.854;2023-02-04T01:43:27;14.00;;;2.55;;
65896;SDS011;52677;50.898;10.854;2023-02-04T01:45:28;7.05;;;1.95;;
65896;SDS011;52677;50.898;10.854;2023-02-04T01:47:29;12.80;;;2.53;;
65896;SDS011;52677;50.898;10.854;2023-02-04T01:49:30;11.00;;;2.08;;
65896;SDS011;52677;50.898;10.854;2023-02-04T01:51:30;16.00;;;4.15;;
65896;SDS011;52677;50.898;10.854;2023-02-04T01:53:31;12.70;;;2.70;;
65896;SDS011;52677;50.898;10.854;2023-02-04T01:55:33;17.00;;;3.08;;
65896;SDS011;52677;50.898;10.854;2023-02-04T01:57:34;12.27;;;2.35;;
65896;SDS011;52677;50.898;10.854;2023-02-04T01:59:35;12.98;;;2.42;;
65896;SDS011;52677;50.898;10.854;2023-02-04T02:01:43;16.17;;;4.70;;
65896;SDS011;52677;50.898;10.854;2023-02-04T02:03:46;13.63;;;2.63;;
65896;SDS011;52677;50.898;10.854;2023-02-04T02:05:47;14.50;;;2.33;;
65896;SDS011;52677;50.898;10.854;2023-02-04T02:07:50;9.05;;;3.00;;
65896;SDS011;52677;50.898;10.854;2023-02-04T02:09:52;9.23;;;2.00;;
65896;SDS011;52677;50.898;10.854;2023-02-04T02:11:53;7.40;;;1.58;;
65896;SDS011;52677;50.898;10.854;2023-02-04T02:13:53;6.53;;;1.88;;
65896;SDS011;52677;50.898;10.854;2023-02-04T02:15:54;7.72;;;1.70;;
65896;SDS011;52677;50.898;10.854;2023-02-04T02:17:54;9.00;;;1.83;;
65896;SDS011;52677;50.898;10.854;2023-02-04T02:19:55;9.75;;;1.60;;
65896;SDS011;52677;50.898;10.854;2023-02-04T02:21:58;8.13;;;1.20;;
65896;SDS011;52677;50.898;10.854;2023-02-04T02:26:32;7.07;;;2.17;;
65896;SDS011;52677;50.898;10.854;2023-02-04T02:28:32;10.20;;;1.95;;
65896;SDS011;52677;50.898;10.854;2023-02-04T02:30:33;7.93;;;1.88;;
65896;SDS011;52677;50.898;10.854;2023-02-04T02:32:33;4.75;;;1.52;;
65896;SDS011;52677;50.898;10.854;2023-02-04T02:34:34;9.55;;;2.30;;
65896;SDS011;52677;50.898;10.854;2023-02-04T02:36:35;9.15;;;2.45;;
65896;SDS011;52677;50.898;10.854;2023-02-04T02:38:36;10.35;;;2.15;;
65896;SDS011;52677;50.898;10.854;2023-02-04T02:40:37;7.18;;;2.13;;
65896;SDS011;52677;50.898;10.854;2023-02-04T02:42:38;9.43;;;2.22;;
65896;SDS011;52677;50.898;10.854;2023-02-04T02:44:38;7.43;;;2.22;;
65896;SDS011;52677;50.898;10.854;2023-02-04T02:46:39;9.77;;;2.13;;
65896;SDS011;52677;50.898;10.854;2023-02-04T02:48:39;7.22;;;2.60;;
65896;SDS011;52677;50.898;10.854;2023-02-04T02:50:40;12.57;;;2.63;;
65896;SDS011;52677;50.898;10.854;2023-02-04T02:52:41;15.80;;;1.97;;
65896;SDS011;52677;50.898;10.854;2023-02-04T02:54:42;9.80;;;2.42;;
65896;SDS011;52677;50.898;10.854;2023-02-04T02:56:42;8.02;;;2.50;;
65896;SDS011;52677;50.898;10.854;2023-02-04T02:58:42;7.88;;;1.85;;
65896;SDS011;52677;50.898;10.854;2023-02-04T03:00:43;11.93;;;2.10;;
65896;SDS011;52677;50.898;10.854;2023-02-04T03:02:43;10.98;;;2.22;;
65896;SDS011;52677;50.898;10.854;2023-02-04T03:04:53;2.15;;;1.33;;
65896;SDS011;52677;50.898;10.854;2023-02-04T03:06:56;1.33;;;1.00;;
65896;SDS011;52677;50.898;10.854;2023-02-04T03:08:57;1.02;;;0.80;;
65896;SDS011;52677;50.898;10.854;2023-02-04T03:10:57;1.17;;;1.00;;
65896;SDS011;52677;50.898;10.854;2023-02-04T03:12:58;0.80;;;0.80;;
65896;SDS011;52677;50.898;10.854;2023-02-04T03:14:58;1.45;;;0.80;;
65896;SDS011;52677;50.898;10.854;2023-02-04T03:16:59;1.00;;;0.90;;
65896;SDS011;52677;50.898;10.854;2023-02-04T03:19:03;2.08;;;1.17;;
65896;SDS011;52677;50.898;10.854;2023-02-04T03:21:05;0.90;;;0.90;;
65896;SDS011;52677;50.898;10.854;2023-02-04T03:23:06;1.10;;;1.00;;
65896;SDS011;52677;50.898;10.854;2023-02-04T03:25:07;1.15;;;0.85;;
65896;SDS011;52677;50.898;10.854;2023-02-04T03:27:07;2.22;;;1.15;;
65896;SDS011;52677;50.898;10.854;2023-02-04T03:29:08;0.77;;;0.75;;
65896;SDS011;52677;50.898;10.854;2023-02-04T03:31:09;1.30;;;0.85;;
65896;SDS011;52677;50.898;10.854;2023-02-04T03:33:09;1.17;;;0.90;;
65896;SDS011;52677;50.898;10.854;2023-02-04T03:35:10;1.17;;;1.00;;
65896;SDS011;52677;50.898;10.854;2023-02-04T03:37:10;0.98;;;0.80;;
65896;SDS011;52677;50.898;10.854;2023-02-04T03:39:10;1.10;;;0.75;;
65896;SDS011;52677;50.898;10.854;2023-02-04T03:41:10;1.23;;;0.90;;
65896;SDS011;52677;50.898;10.854;2023-02-04T03:43:11;0.70;;;0.70;;
65896;SDS011;52677;50.898;10.854;2023-02-04T03:45:11;0.95;;;0.75;;
65896;SDS011;52677;50.898;10.854;2023-02-04T03:47:12;1.42;;;0.90;;
65896;SDS011;52677;50.898;10.854;2023-02-04T03:49:12;1.65;;;0.80;;
65896;SDS011;52677;50.898;10.854;2023-02-04T03:51:12;1.17;;;1.00;;
65896;SDS011;52677;50.898;10.854;2023-02-04T03:53:13;0.90;;;0.90;;
65896;SDS011;52677;50.898;10.854;2023-02-04T03:55:13;1.50;;;1.13;;
65896;SDS011;52677;50.898;10.854;2023-02-04T03:57:14;1.30;;;1.00;;
65896;SDS011;52677;50.898;10.854;2023-02-04T03:59:17;1.52;;;1.20;;
65896;SDS011;52677;50.898;10.854;2023-02-04T04:01:17;1.92;;;0.98;;
65896;SDS011;52677;50.898;10.854;2023-02-04T04:03:17;2.42;;;1.48;;
65896;SDS011;52677;50.898;10.854;2023-02-04T04:05:18;1.88;;;1.23;;
65896;SDS011;52677;50.898;10.854;2023-02-04T04:07:18;2.10;;;1.40;;
65896;SDS011;52677;50.898;10.854;2023-02-04T04:09:18;2.03;;;1.50;;
65896;SDS011;52677;50.898;10.854;2023-02-04T04:11:18;4.03;;;1.55;;
65896;SDS011;52677;50.898;10.854;2023-02-04T04:13:20;1.73;;;1.15;;
65896;SDS011;52677;50.898;10.854;2023-02-04T04:15:21;2.53;;;1.38;;
65896;SDS011;52677;50.898;10.854;2023-02-04T04:17:21;2.63;;;1.58;;
65896;SDS011;52677;50.898;10.854;2023-02-04T04:19:21;3.75;;;1.70;;
65896;SDS011;52677;50.898;10.854;2023-02-04T04:21:23;4.13;;;1.60;;
65896;SDS011;52677;50.898;10.854;2023-02-04T04:23:24;2.92;;;1.63;;
65896;SDS011;52677;50.898;10.854;2023-02-04T04:25:24;1.65;;;1.30;;
65896;SDS011;52677;50.898;10.854;2023-02-04T04:27:25;2.50;;;1.50;;
65896;SDS011;52677;50.898;10.854;2023-02-04T04:29:25;2.35;;;1.35;;
65896;SDS011;52677;50.898;10.854;2023-02-04T04:31:25;1.77;;;1.13;;
65896;SDS011;52677;50.898;10.854;2023-02-04T04:33:25;1.98;;;1.30;;
65896;SDS011;52677;50.898;10.854;2023-02-04T04:35:26;1.60;;;1.20;;
65896;SDS011;52677;50.898;10.854;2023-02-04T04:37:26;2.55;;;1.42;;
65896;SDS011;52677;50.898;10.854;2023-02-04T04:39:26;1.63;;;1.20;;
65896;SDS011;52677;50.898;10.854;2023-02-04T04:41:27;1.60;;;1.13;;
65896;SDS011;52677;50.898;10.854;2023-02-04T04:43:27;1.52;;;1.10;;
65896;SDS011;52677;50.898;10.854;2023-02-04T04:45:27;1.35;;;1.25;;
65896;SDS011;52677;50.898;10.854;2023-02-04T04:47:28;1.63;;;1.20;;
65896;SDS011;52677;50.898;10.854;2023-02-04T04:49:28;1.45;;;1.17;;
65896;SDS011;52677;50.898;10.854;2023-02-04T04:51:28;3.50;;;1.40;;
65896;SDS011;52677;50.898;10.854;2023-02-04T04:55:31;1.70;;;1.20;;
65896;SDS011;52677;50.898;10.854;2023-02-04T04:57:32;2.38;;;1.20;;
65896;SDS011;52677;50.898;10.854;2023-02-04T04:59:33;2.55;;;1.30;;
65896;SDS011;52677;50.898;10.854;2023-02-04T05:01:33;1.40;;;1.10;;
65896;SDS011;52677;50.898;10.854;2023-02-04T05:03:34;2.08;;;1.40;;
65896;SDS011;52677;50.898;10.854;2023-02-04T05:05:34;2.53;;;1.45;;
65896;SDS011;52677;50.898;10.854;2023-02-04T05:07:38;2.40;;;1.40;;
65896;SDS011;52677;50.898;10.854;2023-02-04T05:09:39;1.75;;;1.40;;
65896;SDS011;52677;50.898;10.854;2023-02-04T05:11:39;2.35;;;1.40;;
65896;SDS011;52677;50.898;10.854;2023-02-04T05:13:39;1.88;;;1.40;;
65896;SDS011;52677;50.898;10.854;2023-02-04T05:15:40;2.53;;;1.60;;
65896;SDS011;52677;50.898;10.854;2023-02-04T05:17:41;1.88;;;1.40;;
65896;SDS011;52677;50.898;10.854;2023-02-04T05:19:41;2.33;;;1.63;;
65896;SDS011;52677;50.898;10.854;2023-02-04T05:21:41;3.85;;;1.50;;
65896;SDS011;52677;50.898;10.854;2023-02-04T05:23:42;2.00;;;1.55;;
65896;SDS011;52677;50.898;10.854;2023-02-04T05:25:42;2.33;;;1.40;;
65896;SDS011;52677;50.898;10.854;2023-02-04T05:27:43;3.08;;;1.77;;
65896;SDS011;52677;50.898;10.854;2023-02-04T05:29:43;2.08;;;1.38;;
65896;SDS011;52677;50.898;10.854;2023-02-04T05:31:44;2.60;;;1.60;;
65896;SDS011;52677;50.898;10.854;2023-02-04T05:33:44;2.30;;;1.60;;
65896;SDS011;52677;50.898;10.854;2023-02-04T05:35:45;2.08;;;1.58;;
65896;SDS011;52677;50.898;10.854;2023-02-04T05:37:46;2.05;;;1.60;;
65896;SDS011;52677;50.898;10.854;2023-02-04T05:39:46;2.28;;;1.60;;
65896;SDS011;52677;50.898;10.854;2023-02-04T05:41:47;4.10;;;2.00;;
65896;SDS011;52677;50.898;10.854;2023-02-04T05:43:47;2.80;;;1.30;;
65896;SDS011;52677;50.898;10.854;2023-02-04T05:45:47;2.10;;;1.60;;
65896;SDS011;52677;50.898;10.854;2023-02-04T05:47:47;1.80;;;1.50;;
65896;SDS011;52677;50.898;10.854;2023-02-04T05:49:48;2.33;;;1.40;;
65896;SDS011;52677;50.898;10.854;2023-02-04T05:51:49;2.25;;;1.50;;
65896;SDS011;52677;50.898;10.854;2023-02-04T05:53:49;2.22;;;1.50;;
65896;SDS011;52677;50.898;10.854;2023-02-04T05:55:49;4.47;;;1.83;;
65896;SDS011;52677;50.898;10.854;2023-02-04T05:57:49;2.35;;;1.80;;
65896;SDS011;52677;50.898;10.854;2023-02-04T05:59:50;2.20;;;1.50;;
65896;SDS011;52677;50.898;10.854;2023-02-04T06:01:50;2.38;;;1.50;;
65896;SDS011;52677;50.898;10.854;2023-02-04T06:03:50;2.83;;;1.73;;
65896;SDS011;52677;50.898;10.854;2023-02-04T06:05:51;2.45;;;1.58;;
65896;SDS011;52677;50.898;10.854;2023-02-04T06:07:51;2.45;;;1.67;;
65896;SDS011;52677;50.898;10.854;2023-02-04T06:09:51;2.35;;;1.60;;
65896;SDS011;52677;50.898;10.854;2023-02-04T06:11:52;2.00;;;1.70;;
65896;SDS011;52677;50.898;10.854;2023-02-04T06:13:52;4.43;;;1.77;;
65896;SDS011;52677;50.898;10.854;2023-02-04T06:15:52;2.40;;;1.77;;
65896;SDS011;52677;50.898;10.854;2023-02-04T06:17:53;3.00;;;1.83;;
65896;SDS011;52677;50.898;10.854;2023-02-04T06:19:53;2.13;;;1.70;;
65896;SDS011;52677;50.898;10.854;2023-02-04T06:21:54;3.88;;;1.73;;
65896;SDS011;52677;50.898;10.854;2023-02-04T06:23:54;2.63;;;1.85;;
65896;SDS011;52677;50.898;10.854;2023-02-04T06:25:55;2.70;;;1.73;;
65896;SDS011;52677;50.898;10.854;2023-02-04T06:27:55;3.03;;;2.20;;
65896;SDS011;52677;50.898;10.854;2023-02-04T06:29:55;3.90;;;2.20;;
65896;SDS011;52677;50.898;10.854;2023-02-04T06:31:56;3.83;;;2.10;;
65896;SDS011;52677;50.898;10.854;2023-02-04T06:33:56;3.05;;;1.88;;
65896;SDS011;52677;50.898;10.854;2023-02-04T06:35:57;2.28;;;1.70;;
65896;SDS011;52677;50.898;10.854;2023-02-04T06:37:57;3.00;;;2.17;;
65896;SDS011;52677;50.898;10.854;2023-02-04T06:39:57;5.13;;;2.50;;
65896;SDS011;52677;50.898;10.854;2023-02-04T06:41:57;3.63;;;2.15;;
65896;SDS011;52677;50.898;10.854;2023-02-04T06:43:58;6.05;;;2.70;;
65896;SDS011;52677;50.898;10.854;2023-02-04T06:45:58;4.88;;;2.53;;
65896;SDS011;52677;50.898;10.854;2023-02-04T06:47:58;2.50;;;1.88;;
65896;SDS011;52677;50.898;10.854;2023-02-04T06:49:59;2.58;;;1.67;;
65896;SDS011;52677;50.898;10.854;2023-02-04T06:51:59;3.75;;;2.03;;
65896;SDS011;52677;50.898;10.854;2023-02-04T06:53:59;2.55;;;1.90;;
65896;SDS011;52677;50.898;10.854;2023-02-04T06:56:00;2.65;;;1.60;;
65896;SDS011;52677;50.898;10.854;2023-02-04T06:58:00;2.45;;;1.80;;
65896;SDS011;52677;50.898;10.854;2023-02-04T07:00:01;3.03;;;1.60;;
65896;SDS011;52677;50.898;10.854;2023-02-04T07:02:02;2.13;;;1.70;;
65896;SDS011;52677;50.898;10.854;2023-02-04T07:04:03;3.40;;;2.13;;
65896;SDS011;52677;50.898;10.854;2023-02-04T07:06:04;1.90;;;1.55;;
65896;SDS011;52677;50.898;10.854;2023-02-04T07:08:04;3.33;;;1.73;;
65896;SDS011;52677;50.898;10.854;2023-02-04T07:10:04;2.03;;;1.58;;
65896;SDS011;52677;50.898;10.854;2023-02-04T07:12:05;2.55;;;1.98;;
65896;SDS011;52677;50.898;10.854;2023-02-04T07:14:05;3.10;;;1.98;;
65896;SDS011;52677;50.898;10.854;2023-02-04T07:16:06;2.40;;;1.50;;
65896;SDS011;52677;50.898;10.854;2023-02-04T07:18:06;4.45;;;3.50;;
65896;SDS011;52677;50.898;10.854;2023-02-04T07:20:07;3.33;;;2.38;;
65896;SDS011;52677;50.898;10.854;2023-02-04T07:22:08;2.28;;;1.65;;
65896;SDS011;52677;50.898;10.854;2023-02-04T07:24:09;2.45;;;1.63;;
65896;SDS011;52677;50.898;10.854;2023-02-04T07:26:09;2.28;;;1.80;;
65896;SDS011;52677;50.898;10.854;2023-02-04T07:28:09;3.15;;;1.60;;
65896;SDS011;52677;50.898;10.854;2023-02-04T07:30:10;2.53;;;1.95;;
65896;SDS011;52677;50.898;10.854;2023-02-04T07:32:11;4.32;;;2.75;;
65896;SDS011;52677;50.898;10.854;2023-02-04T07:34:14;4.10;;;2.97;;
65896;SDS011;52677;50.898;10.854;2023-02-04T07:36:15;6.43;;;2.70;;
65896;SDS011;52677;50.898;10.854;2023-02-04T07:38:15;7.15;;;3.05;;
65896;SDS011;52677;50.898;10.854;2023-02-04T07:40:15;8.77;;;2.60;;
65896;SDS011;52677;50.898;10.854;2023-02-04T07:42:16;3.50;;;2.20;;
65896;SDS011;52677;50.898;10.854;2023-02-04T07:44:16;2.67;;;2.13;;
65896;SDS011;52677;50.898;10.854;2023-02-04T07:46:16;4.78;;;2.20;;
65896;SDS011;52677;50.898;10.854;2023-02-04T07:48:17;2.55;;;1.77;;
65896;SDS011;52677;50.898;10.854;2023-02-04T07:50:17;2.55;;;1.75;;
65896;SDS011;52677;50.898;10.854;2023-02-04T07:52:18;6.75;;;2.40;;
65896;SDS011;52677;50.898;10.854;2023-02-04T07:54:18;5.25;;;1.95;;
65896;SDS011;52677;50.898;10.854;2023-02-04T07:56:18;2.97;;;2.05;;
65896;SDS011;52677;50.898;10.854;2023-02-04T07:58:19;6.22;;;3.47;;
65896;SDS011;52677;50.898;10.854;2023-02-04T08:00:19;5.00;;;3.33;;
65896;SDS011;52677;50.898;10.854;2023-02-04T08:02:20;5.47;;;3.78;;
65896;SDS011;52677;50.898;10.854;2023-02-04T08:04:20;7.63;;;4.40;;
65896;SDS011;52677;50.898;10.854;2023-02-04T08:06:21;11.95;;;6.82;;
65896;SDS011;52677;50.898;10.854;2023-02-04T08:08:21;7.57;;;3.75;;
65896;SDS011;52677;50.898;10.854;2023-02-04T08:10:22;5.72;;;3.60;;
65896;SDS011;52677;50.898;10.854;2023-02-04T08:12:22;7.78;;;4.10;;
65896;SDS011;52677;50.898;10.854;2023-02-04T08:14:22;8.45;;;4.57;;
65896;SDS011;52677;50.898;10.854;2023-02-04T08:16:23;11.25;;;5.68;;
65896;SDS011;52677;50.898;10.854;2023-02-04T08:18:23;4.57;;;3.10;;
65896;SDS011;52677;50.898;10.854;2023-02-04T08:20:24;3.83;;;2.40;;
65896;SDS011;52677;50.898;10.854;2023-02-04T08:22:24;2.97;;;2.20;;
65896;SDS011;52677;50.898;10.854;2023-02-04T08:24:24;3.63;;;2.22;;
65896;SDS011;52677;50.898;10.854;2023-02-04T08:26:25;3.03;;;2.30;;
65896;SDS011;52677;50.898;10.854;2023-02-04T08:28:25;4.07;;;2.00;;
65896;SDS011;52677;50.898;10.854;2023-02-04T08:30:25;2.40;;;2.00;;
65896;SDS011;52677;50.898;10.854;2023-02-04T08:32:26;2.40;;;2.17;;
65896;SDS011;52677;50.898;10.854;2023-02-04T08:34:28;2.72;;;2.10;;
65896;SDS011;52677;50.898;10.854;2023-02-04T08:36:29;3.50;;;2.10;;
65896;SDS011;52677;50.898;10.854;2023-02-04T08:38:30;2.55;;;2.10;;
65896;SDS011;52677;50.898;10.854;2023-02-04T08:40:30;3.15;;;2.42;;
65896;SDS011;52677;50.898;10.854;2023-02-04T08:42:30;2.42;;;1.83;;
65896;SDS011;52677;50.898;10.854;2023-02-04T08:44:31;2.20;;;1.92;;
65896;SDS011;52677;50.898;10.854;2023-02-04T08:46:31;2.90;;;1.90;;
65896;SDS011;52677;50.898;10.854;2023-02-04T08:48:31;1.75;;;1.63;;
65896;SDS011;52677;50.898;10.854;2023-02-04T08:50:32;2.47;;;2.17;;
65896;SDS011;52677;50.898;10.854;2023-02-04T08:52:32;3.28;;;1.90;;
65896;SDS011;52677;50.898;10.854;2023-02-04T08:54:33;3.20;;;1.60;;
65896;SDS011;52677;50.898;10.854;2023-02-04T08:56:34;2.92;;;2.10;;
65896;SDS011;52677;50.898;10.854;2023-02-04T08:58:34;2.70;;;2.00;;
65896;SDS011;52677;50.898;10.854;2023-02-04T09:00:34;2.17;;;1.73;;
65896;SDS011;52677;50.898;10.854;2023-02-04T09:02:35;2.92;;;1.75;;
65896;SDS011;52677;50.898;10.854;2023-02-04T09:04:35;2.67;;;1.83;;
65896;SDS011;52677;50.898;10.854;2023-02-04T09:06:36;3.97;;;2.05;;
65896;SDS011;52677;50.898;10.854;2023-02-04T09:08:36;3.22;;;1.73;;
65896;SDS011;52677;50.898;10.854;2023-02-04T09:10:37;3.10;;;1.98;;
65896;SDS011;52677;50.898;10.854;2023-02-04T09:12:37;4.63;;;2.13;;
65896;SDS011;52677;50.898;10.854;2023-02-04T09:14:38;4.30;;;2.20;;
65896;SDS011;52677;50.898;10.854;2023-02-04T09:16:38;4.03;;;2.85;;
65896;SDS011;52677;50.898;10.854;2023-02-04T09:18:38;3.05;;;2.00;;
65896;SDS011;52677;50.898;10.854;2023-02-04T09:20:39;3.45;;;2.35;;
65896;SDS011;52677;50.898;10.854;2023-02-04T09:22:39;4.90;;;3.13;;
65896;SDS011;52677;50.898;10.854;2023-02-04T09:24:40;3.33;;;2.10;;
65896;SDS011;52677;50.898;10.854;2023-02-04T09:26:40;5.38;;;2.22;;
65896;SDS011;52677;50.898;10.854;2023-02-04T09:28:40;4.15;;;2.42;;
65896;SDS011;52677;50.898;10.854;2023-02-04T09:30:41;3.90;;;2.25;;
65896;SDS011;52677;50.898;10.854;2023-02-04T09:32:43;2.85;;;2.00;;
65896;SDS011;52677;50.898;10.854;2023-02-04T09:34:43;3.08;;;2.20;;
65896;SDS011;52677;50.898;10.854;2023-02-04T09:36:44;3.17;;;2.03;;
65896;SDS011;52677;50.898;10.854;2023-02-04T09:38:44;3.35;;;2.35;;
65896;SDS011;52677;50.898;10.854;2023-02-04T09:40:46;2.20;;;2.00;;
65896;SDS011;52677;50.898;10.854;2023-02-04T09:42:50;3.17;;;1.90;;
65896;SDS011;52677;50.898;10.854;2023-02-04T09:44:51;4.38;;;2.40;;
65896;SDS011;52677;50.898;10.854;2023-02-04T09:46:56;4.97;;;4.28;;
65896;SDS011;52677;50.898;10.854;2023-02-04T09:48:58;3.15;;;2.63;;
65896;SDS011;52677;50.898;10.854;2023-02-04T09:51:03;2.92;;;2.05;;
65896;SDS011;52677;50.898;10.854;2023-02-04T09:53:05;2.92;;;2.40;;
65896;SDS011;52677;50.898;10.854;2023-02-04T09:55:12;13.77;;;8.88;;
65896;SDS011;52677;50.898;10.854;2023-02-04T09:57:14;3.35;;;2.40;;
65896;SDS011;52677;50.898;10.854;2023-02-04T09:59:18;4.05;;;1.98;;
65896;SDS011;52677;50.898;10.854;2023-02-04T10:01:21;4.05;;;2.53;;
65896;SDS011;52677;50.898;10.854;2023-02-04T10:03:21;2.42;;;2.00;;
65896;SDS011;52677;50.898;10.854;2023-02-04T10:05:31;3.35;;;2.03;;
65896;SDS011;52677;50.898;10.854;2023-02-04T10:07:33;3.92;;;2.08;;
65896;SDS011;52677;50.898;10.854;2023-02-04T10:09:40;4.97;;;3.10;;
65896;SDS011;52677;50.898;10.854;2023-02-04T10:11:41;3.40;;;2.03;;
65896;SDS011;52677;50.898;10.854;2023-02-04T10:15:52;4.88;;;2.10;;
65896;SDS011;52677;50.898;10.854;2023-02-04T10:17:53;2.92;;;1.60;;
65896;SDS011;52677;50.898;10.854;2023-02-04T10:19:57;2.20;;;1.80;;
65896;SDS011;52677;50.898;10.854;2023-02-04T10:21:57;1.77;;;1.50;;
65896;SDS011;52677;50.898;10.854;2023-02-04T10:23:59;2.75;;;1.58;;
65896;SDS011;52677;50.898;10.854;2023-02-04T10:26:02;2.33;;;1.90;;
65896;SDS011;52677;50.898;10.854;2023-02-04T10:28:03;3.08;;;2.05;;
65896;SDS011;52677;50.898;10.854;2023-02-04T10:30:03;2.78;;;1.40;;
65896;SDS011;52677;50.898;10.854;2023-02-04T10:32:04;1.75;;;1.60;;
65896;SDS011;52677;50.898;10.854;2023-02-04T10:34:15;3.63;;;1.50;;
65896;SDS011;52677;50.898;10.854;2023-02-04T10:36:19;2.35;;;1.30;;
65896;SDS011;52677;50.898;10.854;2023-02-04T10:38:19;1.73;;;1.10;;
65896;SDS011;52677;50.898;10.854;2023-02-04T10:42:29;1.90;;;1.73;;
65896;SDS011;52677;50.898;10.854;2023-02-04T10:44:31;3.03;;;2.13;;
65896;SDS011;52677;50.898;10.854;2023-02-04T10:46:34;4.28;;;2.15;;
65896;SDS011;52677;50.898;10.854;2023-02-04T10:48:41;7.13;;;2.90;;
65896;SDS011;52677;50.898;10.854;2023-02-04T10:50:42;3.45;;;2.25;;
65896;SDS011;52677;50.898;10.854;2023-02-04T10:52:45;3.08;;;2.05;;
65896;SDS011;52677;50.898;10.854;2023-02-04T10:54:48;5.03;;;2.85;;
65896;SDS011;52677;50.898;10.854;2023-02-04T10:56:49;4.45;;;2.88;;
65896;SDS011;52677;50.898;10.854;2023-02-04T10:58:49;2.33;;;1.90;;
65896;SDS011;52677;50.898;10.854;2023-02-04T11:00:49;1.77;;;1.63;;
65896;SDS011;52677;50.898;10.854;2023-02-04T11:02:53;4.07;;;1.80;;
65896;SDS011;52677;50.898;10.854;2023-02-04T11:04:57;11.43;;;5.28;;
65896;SDS011;52677;50.898;10.854;2023-02-04T11:06:58;5.18;;;2.90;;
65896;SDS011;52677;50.898;10.854;2023-02-04T11:08:59;4.68;;;2.67;;
65896;SDS011;52677;50.898;10.854;2023-02-04T11:11:00;3.53;;;2.05;;
65896;SDS011;52677;50.898;10.854;2023-02-04T11:13:05;5.45;;;2.90;;
65896;SDS011;52677;50.898;10.854;2023-02-04T11:15:06;4.47;;;2.58;;
65896;SDS011;52677;50.898;10.854;2023-02-04T11:17:43;5.68;;;3.45;;
65896;SDS011;52677;50.898;10.854;2023-02-04T11:19:43;7.25;;;4.43;;
65896;SDS011;52677;50.898;10.854;2023-02-04T11:21:44;8.95;;;4.47;;
65896;SDS011;52677;50.898;10.854;2023-02-04T11:23:45;13.48;;;7.93;;
65896;SDS011;52677;50.898;10.854;2023-02-04T11:25:46;7.78;;;4.25;;
65896;SDS011;52677;50.898;10.854;2023-02-04T11:27:47;6.35;;;4.65;;
65896;SDS011;52677;50.898;10.854;2023-02-04T11:29:48;7.35;;;4.65;;
65896;SDS011;52677;50.898;10.854;2023-02-04T11:33:49;6.20;;;4.60;;
65896;SDS011;52677;50.898;10.854;2023-02-04T11:36:05;6.50;;;3.55;;
65896;SDS011;52677;50.898;10.854;2023-02-04T11:38:22;2.00;;;1.80;;
65896;SDS011;52677;50.898;10.854;2023-02-04T11:40:34;2.83;;;1.88;;
65896;SDS011;52677;50.898;10.854;2023-02-04T11:42:40;3.20;;;2.40;;
65896;SDS011;52677;50.898;10.854;2023-02-04T11:44:41;3.03;;;2.17;;
65896;SDS011;52677;50.898;10.854;2023-02-04T11:46:51;4.88;;;2.15;;
65896;SDS011;52677;50.898;10.854;2023-02-04T11:48:56;4.97;;;2.15;;
65896;SDS011;52677;50.898;10.854;2023-02-04T11:50:58;2.63;;;1.70;;
65896;SDS011;52677;50.898;10.854;2023-02-04T11:55:01;4.50;;;2.00;;
65896;SDS011;52677;50.898;10.854;2023-02-04T11:57:01;10.85;;;4.90;;
65896;SDS011;52677;50.898;10.854;2023-02-04T11:59:02;4.40;;;2.40;;
65896;SDS011;52677;50.898;10.854;2023-02-04T12:01:03;1.67;;;1.20;;
65896;SDS011;52677;50.898;10.854;2023-02-04T12:03:04;2.05;;;1.30;;
65896;SDS011;52677;50.898;10.854;2023-02-04T12:07:39;1.67;;;1.30;;
65896;SDS011;52677;50.898;10.854;2023-02-04T12:09:45;1.30;;;1.00;;
65896;SDS011;52677;50.898;10.854;2023-02-04T12:11:54;1.77;;;1.33;;
65896;SDS011;52677;50.898;10.854;2023-02-04T12:13:56;2.63;;;1.40;;